sensor_id;sensor_type;location;lat;lon;timestamp;P1;durP1;ratioP1;P2;durP2;ratioP2
65035;SDS011;51603;49.300;8.880;2024-03-02T00:02:12;25.23;;;18.93;;
65035;SDS011;51603;49.300;8.880;2024-03-02T00:04:39;131.87;;;70.60;;
65035;SDS011;51603;49.300;8.880;2024-03-02T00:07:04;49.60;;;34.20;;
65035;SDS011;51603;49.300;8.880;2024-03-02T00:09:31;38.67;;;29.80;;
65035;SDS011;51603;49.300;8.880;2024-03-02T00:11:58;44.23;;;31.20;;
65035;SDS011;51603;49.300;8.880;2024-03-02T00:14:25;38.23;;;29.27;;
65035;SDS011;51603;49.300;8.880;2024-03-02T00:16:51;35.60;;;27.50;;
65035;SDS011;51603;49.300;8.880;2024-03-02T00:19:17;32.57;;;25.70;;
65035;SDS011;51603;49.300;8.880;2024-03-02T00:21:42;34.30;;;26.00;;
65035;SDS011;51603;49.300;8.880;2024-03-02T00:24:21;33.27;;;25.77;;
65035;SDS011;51603;49.300;8.880;2024-03-02T00:26:57;28.50;;;23.17;;
65035;SDS011;51603;49.300;8.880;2024-03-02T00:29:22;33.80;;;27.10;;
65035;SDS011;51603;49.300;8.880;2024-03-02T00:31:49;42.47;;;29.97;;
65035;SDS011;51603;49.300;8.880;2024-03-02T00:34:14;55.10;;;38.70;;
65035;SDS011;51603;49.300;8.880;2024-03-02T00:36:41;50.13;;;34.83;;
65035;SDS011;51603;49.300;8.880;2024-03-02T00:39:07;39.63;;;29.87;;
65035;SDS011;51603;49.300;8.880;2024-03-02T00:41:33;27.83;;;24.47;;
65035;SDS011;51603;49.300;8.880;2024-03-02T00:43:59;30.63;;;23.73;;
65035;SDS011;51603;49.300;8.880;2024-03-02T00:46:34;27.67;;;23.00;;
65035;SDS011;51603;49.300;8.880;2024-03-02T00:49:05;26.67;;;21.33;;
65035;SDS011;51603;49.300;8.880;2024-03-02T00:51:49;28.77;;;24.03;;
65035;SDS011;51603;49.300;8.880;2024-03-02T00:54:24;28.00;;;20.33;;
65035;SDS011;51603;49.300;8.880;2024-03-02T00:56:51;29.90;;;22.60;;
65035;SDS011;51603;49.300;8.880;2024-03-02T00:59:20;26.30;;;20.60;;
65035;SDS011;51603;49.300;8.880;2024-03-02T01:01:45;25.77;;;19.77;;
65035;SDS011;51603;49.300;8.880;2024-03-02T01:04:12;21.40;;;18.30;;
65035;SDS011;51603;49.300;8.880;2024-03-02T01:06:39;27.13;;;21.40;;
65035;SDS011;51603;49.300;8.880;2024-03-02T01:09:04;22.87;;;19.90;;
65035;SDS011;51603;49.300;8.880;2024-03-02T01:11:30;26.00;;;21.83;;
65035;SDS011;51603;49.300;8.880;2024-03-02T01:13:55;27.70;;;22.80;;
65035;SDS011;51603;49.300;8.880;2024-03-02T01:16:21;25.90;;;20.30;;
65035;SDS011;51603;49.300;8.880;2024-03-02T01:18:46;26.77;;;22.90;;
65035;SDS011;51603;49.300;8.880;2024-03-02T01:21:12;32.90;;;24.43;;
65035;SDS011;51603;49.300;8.880;2024-03-02T01:23:37;27.93;;;23.23;;
65035;SDS011;51603;49.300;8.880;2024-03-02T01:26:03;31.17;;;24.47;;
65035;SDS011;51603;49.300;8.880;2024-03-02T01:28:28;30.53;;;24.90;;
65035;SDS011;51603;49.300;8.880;2024-03-02T01:30:54;36.23;;;29.30;;
65035;SDS011;51603;49.300;8.880;2024-03-02T01:33:20;36.83;;;29.03;;
65035;SDS011;51603;49.300;8.880;2024-03-02T01:35:46;31.13;;;24.80;;
65035;SDS011;51603;49.300;8.880;2024-03-02T01:38:12;31.50;;;25.67;;
65035;SDS011;51603;49.300;8.880;2024-03-02T01:40:38;34.93;;;27.07;;
65035;SDS011;51603;49.300;8.880;2024-03-02T01:43:04;30.37;;;24.77;;
65035;SDS011;51603;49.300;8.880;2024-03-02T01:45:33;29.33;;;22.30;;
65035;SDS011;51603;49.300;8.880;2024-03-02T01:48:00;26.93;;;23.23;;
65035;SDS011;51603;49.300;8.880;2024-03-02T01:50:26;27.43;;;23.20;;
65035;SDS011;51603;49.300;8.880;2024-03-02T01:52:54;28.50;;;22.47;;
65035;SDS011;51603;49.300;8.880;2024-03-02T01:55:20;25.33;;;22.47;;
65035;SDS011;51603;49.300;8.880;2024-03-02T01:57:47;30.13;;;22.67;;
65035;SDS011;51603;49.300;8.880;2024-03-02T02:00:13;28.00;;;23.03;;
65035;SDS011;51603;49.300;8.880;2024-03-02T02:02:39;31.30;;;23.07;;
65035;SDS011;51603;49.300;8.880;2024-03-02T02:05:05;32.03;;;23.00;;
65035;SDS011;51603;49.300;8.880;2024-03-02T02:07:31;27.27;;;21.70;;
65035;SDS011;51603;49.300;8.880;2024-03-02T02:09:57;25.80;;;21.53;;
65035;SDS011;51603;49.300;8.880;2024-03-02T02:12:22;28.87;;;22.60;;
65035;SDS011;51603;49.300;8.880;2024-03-02T02:14:48;29.67;;;22.60;;
65035;SDS011;51603;49.300;8.880;2024-03-02T02:17:15;27.37;;;22.77;;
65035;SDS011;51603;49.300;8.880;2024-03-02T02:19:41;29.53;;;22.93;;
65035;SDS011;51603;49.300;8.880;2024-03-02T02:22:07;28.37;;;21.97;;
65035;SDS011;51603;49.300;8.880;2024-03-02T02:24:33;31.03;;;23.30;;
65035;SDS011;51603;49.300;8.880;2024-03-02T02:26:58;32.60;;;24.60;;
65035;SDS011;51603;49.300;8.880;2024-03-02T02:29:24;26.50;;;22.33;;
65035;SDS011;51603;49.300;8.880;2024-03-02T02:31:49;28.60;;;22.67;;
65035;SDS011;51603;49.300;8.880;2024-03-02T02:34:15;27.37;;;22.67;;
65035;SDS011;51603;49.300;8.880;2024-03-02T02:36:41;29.10;;;23.57;;
65035;SDS011;51603;49.300;8.880;2024-03-02T02:39:09;37.10;;;26.23;;
65035;SDS011;51603;49.300;8.880;2024-03-02T02:41:38;25.27;;;22.20;;
65035;SDS011;51603;49.300;8.880;2024-03-02T02:44:04;31.00;;;24.17;;
65035;SDS011;51603;49.300;8.880;2024-03-02T02:46:29;32.13;;;23.10;;
65035;SDS011;51603;49.300;8.880;2024-03-02T02:48:55;23.13;;;19.97;;
65035;SDS011;51603;49.300;8.880;2024-03-02T02:51:21;33.37;;;26.03;;
65035;SDS011;51603;49.300;8.880;2024-03-02T02:53:46;29.50;;;24.60;;
65035;SDS011;51603;49.300;8.880;2024-03-02T02:56:12;27.53;;;21.93;;
65035;SDS011;51603;49.300;8.880;2024-03-02T02:58:37;30.80;;;23.10;;
65035;SDS011;51603;49.300;8.880;2024-03-02T03:01:06;30.23;;;21.83;;
65035;SDS011;51603;49.300;8.880;2024-03-02T03:03:32;28.33;;;20.93;;
65035;SDS011;51603;49.300;8.880;2024-03-02T03:05:58;27.10;;;21.40;;
65035;SDS011;51603;49.300;8.880;2024-03-02T03:08:23;28.37;;;21.60;;
65035;SDS011;51603;49.300;8.880;2024-03-02T03:10:49;31.30;;;23.70;;
65035;SDS011;51603;49.300;8.880;2024-03-02T03:13:14;26.60;;;20.63;;
65035;SDS011;51603;49.300;8.880;2024-03-02T03:15:40;27.43;;;23.00;;
65035;SDS011;51603;49.300;8.880;2024-03-02T03:18:06;26.17;;;21.83;;
65035;SDS011;51603;49.300;8.880;2024-03-02T03:20:32;24.83;;;20.13;;
65035;SDS011;51603;49.300;8.880;2024-03-02T03:22:58;27.10;;;22.93;;
65035;SDS011;51603;49.300;8.880;2024-03-02T03:25:24;26.77;;;21.90;;
65035;SDS011;51603;49.300;8.880;2024-03-02T03:27:50;28.27;;;23.43;;
65035;SDS011;51603;49.300;8.880;2024-03-02T03:30:17;28.40;;;22.73;;
65035;SDS011;51603;49.300;8.880;2024-03-02T03:32:43;26.53;;;22.40;;
65035;SDS011;51603;49.300;8.880;2024-03-02T03:35:08;32.10;;;24.77;;
65035;SDS011;51603;49.300;8.880;2024-03-02T03:37:34;33.67;;;25.13;;
65035;SDS011;51603;49.300;8.880;2024-03-02T03:40:00;31.87;;;27.30;;
65035;SDS011;51603;49.300;8.880;2024-03-02T03:42:26;28.40;;;24.57;;
65035;SDS011;51603;49.300;8.880;2024-03-02T03:44:51;30.33;;;23.73;;
65035;SDS011;51603;49.300;8.880;2024-03-02T03:47:17;30.30;;;24.17;;
65035;SDS011;51603;49.300;8.880;2024-03-02T03:49:42;33.10;;;24.00;;
65035;SDS011;51603;49.300;8.880;2024-03-02T03:52:08;27.63;;;21.73;;
65035;SDS011;51603;49.300;8.880;2024-03-02T03:54:34;28.03;;;21.67;;
65035;SDS011;51603;49.300;8.880;2024-03-02T03:56:59;27.70;;;21.83;;
65035;SDS011;51603;49.300;8.880;2024-03-02T03:59:25;30.63;;;22.07;;
65035;SDS011;51603;49.300;8.880;2024-03-02T04:01:50;34.47;;;24.87;;
65035;SDS011;51603;49.300;8.880;2024-03-02T04:04:16;30.00;;;22.40;;
65035;SDS011;51603;49.300;8.880;2024-03-02T04:06:42;28.10;;;20.73;;
65035;SDS011;51603;49.300;8.880;2024-03-02T04:09:07;28.60;;;22.50;;
65035;SDS011;51603;49.300;8.880;2024-03-02T04:11:33;28.00;;;23.07;;
65035;SDS011;51603;49.300;8.880;2024-03-02T04:13:58;29.00;;;23.03;;
65035;SDS011;51603;49.300;8.880;2024-03-02T04:16:24;28.80;;;23.13;;
65035;SDS011;51603;49.300;8.880;2024-03-02T04:18:49;28.43;;;21.73;;
65035;SDS011;51603;49.300;8.880;2024-03-02T04:21:15;30.00;;;22.40;;
65035;SDS011;51603;49.300;8.880;2024-03-02T04:23:40;32.03;;;24.07;;
65035;SDS011;51603;49.300;8.880;2024-03-02T04:26:06;25.63;;;22.73;;
65035;SDS011;51603;49.300;8.880;2024-03-02T04:28:31;28.33;;;23.23;;
65035;SDS011;51603;49.300;8.880;2024-03-02T04:30:57;34.40;;;26.23;;
65035;SDS011;51603;49.300;8.880;2024-03-02T04:33:23;27.40;;;23.03;;
65035;SDS011;51603;49.300;8.880;2024-03-02T04:35:48;25.27;;;22.07;;
65035;SDS011;51603;49.300;8.880;2024-03-02T04:38:14;28.83;;;22.60;;
65035;SDS011;51603;49.300;8.880;2024-03-02T04:40:39;28.80;;;23.40;;
65035;SDS011;51603;49.300;8.880;2024-03-02T04:43:05;25.90;;;21.93;;
65035;SDS011;51603;49.300;8.880;2024-03-02T04:45:30;27.90;;;21.53;;
65035;SDS011;51603;49.300;8.880;2024-03-02T04:47:56;31.40;;;24.00;;
65035;SDS011;51603;49.300;8.880;2024-03-02T04:50:22;31.33;;;23.73;;
65035;SDS011;51603;49.300;8.880;2024-03-02T04:52:47;27.27;;;23.83;;
65035;SDS011;51603;49.300;8.880;2024-03-02T04:55:13;36.37;;;25.10;;
65035;SDS011;51603;49.300;8.880;2024-03-02T04:57:54;32.70;;;24.60;;
65035;SDS011;51603;49.300;8.880;2024-03-02T05:00:20;28.70;;;22.97;;
65035;SDS011;51603;49.300;8.880;2024-03-02T05:02:46;31.40;;;24.60;;
65035;SDS011;51603;49.300;8.880;2024-03-02T05:05:12;30.77;;;24.17;;
65035;SDS011;51603;49.300;8.880;2024-03-02T05:07:37;33.43;;;23.90;;
65035;SDS011;51603;49.300;8.880;2024-03-02T05:10:03;28.40;;;21.13;;
65035;SDS011;51603;49.300;8.880;2024-03-02T05:12:29;33.10;;;24.93;;
65035;SDS011;51603;49.300;8.880;2024-03-02T05:15:10;31.33;;;24.80;;
65035;SDS011;51603;49.300;8.880;2024-03-02T05:17:37;28.97;;;23.03;;
65035;SDS011;51603;49.300;8.880;2024-03-02T05:20:03;30.50;;;22.90;;
65035;SDS011;51603;49.300;8.880;2024-03-02T05:22:30;29.93;;;23.67;;
65035;SDS011;51603;49.300;8.880;2024-03-02T05:24:55;33.60;;;23.90;;
65035;SDS011;51603;49.300;8.880;2024-03-02T05:27:21;29.93;;;22.67;;
65035;SDS011;51603;49.300;8.880;2024-03-02T05:29:47;30.83;;;23.00;;
65035;SDS011;51603;49.300;8.880;2024-03-02T05:32:12;33.23;;;24.90;;
65035;SDS011;51603;49.300;8.880;2024-03-02T05:34:38;33.30;;;23.67;;
65035;SDS011;51603;49.300;8.880;2024-03-02T05:37:03;28.97;;;24.40;;
65035;SDS011;51603;49.300;8.880;2024-03-02T05:39:29;31.10;;;25.47;;
65035;SDS011;51603;49.300;8.880;2024-03-02T05:41:54;31.27;;;22.70;;
65035;SDS011;51603;49.300;8.880;2024-03-02T05:44:20;33.47;;;24.93;;
65035;SDS011;51603;49.300;8.880;2024-03-02T05:46:46;32.77;;;24.13;;
65035;SDS011;51603;49.300;8.880;2024-03-02T05:49:11;35.53;;;26.73;;
65035;SDS011;51603;49.300;8.880;2024-03-02T05:51:37;36.60;;;27.47;;
65035;SDS011;51603;49.300;8.880;2024-03-02T05:54:02;36.20;;;29.37;;
65035;SDS011;51603;49.300;8.880;2024-03-02T05:56:29;44.43;;;34.53;;
65035;SDS011;51603;49.300;8.880;2024-03-02T05:58:54;42.40;;;34.43;;
65035;SDS011;51603;49.300;8.880;2024-03-02T06:01:52;43.10;;;35.30;;
65035;SDS011;51603;49.300;8.880;2024-03-02T06:04:18;38.70;;;31.00;;
65035;SDS011;51603;49.300;8.880;2024-03-02T06:06:43;40.33;;;30.40;;
65035;SDS011;51603;49.300;8.880;2024-03-02T06:09:09;35.47;;;28.10;;
65035;SDS011;51603;49.300;8.880;2024-03-02T06:11:37;33.37;;;26.87;;
65035;SDS011;51603;49.300;8.880;2024-03-02T06:14:04;31.27;;;26.17;;
65035;SDS011;51603;49.300;8.880;2024-03-02T06:16:31;30.47;;;24.50;;
65035;SDS011;51603;49.300;8.880;2024-03-02T06:18:57;34.43;;;25.60;;
65035;SDS011;51603;49.300;8.880;2024-03-02T06:21:23;29.27;;;24.10;;
65035;SDS011;51603;49.300;8.880;2024-03-02T06:23:48;26.40;;;22.20;;
65035;SDS011;51603;49.300;8.880;2024-03-02T06:26:14;30.30;;;23.70;;
65035;SDS011;51603;49.300;8.880;2024-03-02T06:28:40;33.77;;;25.77;;
65035;SDS011;51603;49.300;8.880;2024-03-02T06:31:05;35.87;;;26.60;;
65035;SDS011;51603;49.300;8.880;2024-03-02T06:33:31;32.33;;;22.40;;
65035;SDS011;51603;49.300;8.880;2024-03-02T06:35:56;34.00;;;24.80;;
65035;SDS011;51603;49.300;8.880;2024-03-02T06:38:22;34.03;;;24.50;;
65035;SDS011;51603;49.300;8.880;2024-03-02T06:40:47;42.57;;;30.63;;
65035;SDS011;51603;49.300;8.880;2024-03-02T06:43:13;44.50;;;29.40;;
65035;SDS011;51603;49.300;8.880;2024-03-02T06:45:38;34.70;;;24.53;;
65035;SDS011;51603;49.300;8.880;2024-03-02T06:48:04;31.80;;;24.27;;
65035;SDS011;51603;49.300;8.880;2024-03-02T06:50:30;35.33;;;25.33;;
65035;SDS011;51603;49.300;8.880;2024-03-02T06:52:55;34.20;;;24.00;;
65035;SDS011;51603;49.300;8.880;2024-03-02T06:55:21;35.93;;;26.07;;
65035;SDS011;51603;49.300;8.880;2024-03-02T06:57:47;36.47;;;24.90;;
65035;SDS011;51603;49.300;8.880;2024-03-02T07:00:13;37.20;;;25.73;;
65035;SDS011;51603;49.300;8.880;2024-03-02T07:02:38;36.80;;;26.27;;
65035;SDS011;51603;49.300;8.880;2024-03-02T07:05:06;33.27;;;25.63;;
65035;SDS011;51603;49.300;8.880;2024-03-02T07:07:33;34.93;;;24.03;;
65035;SDS011;51603;49.300;8.880;2024-03-02T07:09:59;63.30;;;45.60;;
65035;SDS011;51603;49.300;8.880;2024-03-02T07:12:25;30.80;;;25.07;;
65035;SDS011;51603;49.300;8.880;2024-03-02T07:14:51;34.13;;;25.60;;
65035;SDS011;51603;49.300;8.880;2024-03-02T07:17:29;35.00;;;26.00;;
65035;SDS011;51603;49.300;8.880;2024-03-02T07:19:55;35.70;;;25.53;;
65035;SDS011;51603;49.300;8.880;2024-03-02T07:22:21;29.87;;;22.17;;
65035;SDS011;51603;49.300;8.880;2024-03-02T07:24:47;31.67;;;23.97;;
65035;SDS011;51603;49.300;8.880;2024-03-02T07:27:14;31.73;;;22.93;;
65035;SDS011;51603;49.300;8.880;2024-03-02T07:29:40;30.90;;;22.90;;
65035;SDS011;51603;49.300;8.880;2024-03-02T07:32:06;33.93;;;24.93;;
65035;SDS011;51603;49.300;8.880;2024-03-02T07:34:32;31.60;;;23.47;;
65035;SDS011;51603;49.300;8.880;2024-03-02T07:36:58;31.13;;;24.10;;
65035;SDS011;51603;49.300;8.880;2024-03-02T07:39:24;35.93;;;25.90;;
65035;SDS011;51603;49.300;8.880;2024-03-02T07:41:50;29.83;;;23.60;;
65035;SDS011;51603;49.300;8.880;2024-03-02T07:44:16;30.20;;;23.07;;
65035;SDS011;51603;49.300;8.880;2024-03-02T07:46:43;31.00;;;22.90;;
65035;SDS011;51603;49.300;8.880;2024-03-02T07:49:11;29.40;;;22.30;;
65035;SDS011;51603;49.300;8.880;2024-03-02T07:51:38;32.90;;;23.87;;
65035;SDS011;51603;49.300;8.880;2024-03-02T07:54:04;40.73;;;24.70;;
65035;SDS011;51603;49.300;8.880;2024-03-02T07:56:29;29.90;;;23.00;;
65035;SDS011;51603;49.300;8.880;2024-03-02T07:58:55;31.33;;;23.07;;
65035;SDS011;51603;49.300;8.880;2024-03-02T08:01:22;31.00;;;21.80;;
65035;SDS011;51603;49.300;8.880;2024-03-02T08:03:48;32.30;;;23.70;;
65035;SDS011;51603;49.300;8.880;2024-03-02T08:06:15;33.00;;;23.87;;
65035;SDS011;51603;49.300;8.880;2024-03-02T08:08:41;41.07;;;27.50;;
65035;SDS011;51603;49.300;8.880;2024-03-02T08:11:06;35.43;;;26.33;;
65035;SDS011;51603;49.300;8.880;2024-03-02T08:13:32;42.60;;;29.27;;
65035;SDS011;51603;49.300;8.880;2024-03-02T08:15:57;42.17;;;28.87;;
65035;SDS011;51603;49.300;8.880;2024-03-02T08:18:24;42.90;;;29.43;;
65035;SDS011;51603;49.300;8.880;2024-03-02T08:20:49;39.50;;;28.43;;
65035;SDS011;51603;49.300;8.880;2024-03-02T08:23:15;40.60;;;29.60;;
65035;SDS011;51603;49.300;8.880;2024-03-02T08:25:40;40.43;;;29.80;;
65035;SDS011;51603;49.300;8.880;2024-03-02T08:28:07;38.67;;;29.40;;
65035;SDS011;51603;49.300;8.880;2024-03-02T08:30:32;40.63;;;29.30;;
65035;SDS011;51603;49.300;8.880;2024-03-02T08:32:58;38.30;;;31.10;;
65035;SDS011;51603;49.300;8.880;2024-03-02T08:35:24;34.73;;;26.90;;
65035;SDS011;51603;49.300;8.880;2024-03-02T08:37:50;35.83;;;26.23;;
65035;SDS011;51603;49.300;8.880;2024-03-02T08:40:15;34.43;;;25.47;;
65035;SDS011;51603;49.300;8.880;2024-03-02T08:42:41;29.77;;;24.47;;
65035;SDS011;51603;49.300;8.880;2024-03-02T08:45:07;30.77;;;24.00;;
65035;SDS011;51603;49.300;8.880;2024-03-02T08:47:33;27.77;;;22.73;;
65035;SDS011;51603;49.300;8.880;2024-03-02T08:49:59;26.37;;;21.70;;
65035;SDS011;51603;49.300;8.880;2024-03-02T08:52:25;25.37;;;20.90;;
65035;SDS011;51603;49.300;8.880;2024-03-02T08:54:51;26.43;;;20.57;;
65035;SDS011;51603;49.300;8.880;2024-03-02T08:57:16;24.60;;;20.80;;
65035;SDS011;51603;49.300;8.880;2024-03-02T08:59:42;22.93;;;19.20;;
65035;SDS011;51603;49.300;8.880;2024-03-02T09:02:09;18.83;;;16.83;;
65035;SDS011;51603;49.300;8.880;2024-03-02T09:04:34;20.47;;;17.93;;
65035;SDS011;51603;49.300;8.880;2024-03-02T09:07:00;26.47;;;18.10;;
65035;SDS011;51603;49.300;8.880;2024-03-02T09:09:26;19.57;;;16.83;;
65035;SDS011;51603;49.300;8.880;2024-03-02T09:11:51;21.90;;;17.43;;
65035;SDS011;51603;49.300;8.880;2024-03-02T09:14:19;17.30;;;15.23;;
65035;SDS011;51603;49.300;8.880;2024-03-02T09:16:45;16.30;;;14.57;;
65035;SDS011;51603;49.300;8.880;2024-03-02T09:19:11;17.23;;;14.40;;
65035;SDS011;51603;49.300;8.880;2024-03-02T09:21:36;16.43;;;14.57;;
65035;SDS011;51603;49.300;8.880;2024-03-02T09:24:02;21.20;;;16.00;;
65035;SDS011;51603;49.300;8.880;2024-03-02T09:26:28;16.00;;;13.80;;
65035;SDS011;51603;49.300;8.880;2024-03-02T09:28:54;14.80;;;13.30;;
65035;SDS011;51603;49.300;8.880;2024-03-02T09:31:20;16.33;;;14.30;;
65035;SDS011;51603;49.300;8.880;2024-03-02T09:33:45;15.40;;;13.80;;
65035;SDS011;51603;49.300;8.880;2024-03-02T09:36:17;16.33;;;12.23;;
65035;SDS011;51603;49.300;8.880;2024-03-02T09:38:43;15.10;;;13.50;;
65035;SDS011;51603;49.300;8.880;2024-03-02T09:41:09;15.53;;;13.60;;
65035;SDS011;51603;49.300;8.880;2024-03-02T09:43:35;14.67;;;11.50;;
65035;SDS011;51603;49.300;8.880;2024-03-02T09:46:01;14.07;;;12.30;;
65035;SDS011;51603;49.300;8.880;2024-03-02T09:48:26;15.27;;;13.50;;
65035;SDS011;51603;49.300;8.880;2024-03-02T09:50:52;14.67;;;11.47;;
65035;SDS011;51603;49.300;8.880;2024-03-02T09:53:18;15.03;;;12.20;;
65035;SDS011;51603;49.300;8.880;2024-03-02T09:55:47;13.77;;;12.33;;
65035;SDS011;51603;49.300;8.880;2024-03-02T09:58:12;13.90;;;12.30;;
65035;SDS011;51603;49.300;8.880;2024-03-02T10:00:38;13.20;;;11.30;;
65035;SDS011;51603;49.300;8.880;2024-03-02T10:03:03;11.63;;;9.60;;
65035;SDS011;51603;49.300;8.880;2024-03-02T10:05:30;11.53;;;10.40;;
65035;SDS011;51603;49.300;8.880;2024-03-02T10:08:02;15.33;;;10.93;;
65035;SDS011;51603;49.300;8.880;2024-03-02T10:10:37;11.33;;;10.13;;
65035;SDS011;51603;49.300;8.880;2024-03-02T10:13:08;11.77;;;10.57;;
65035;SDS011;51603;49.300;8.880;2024-03-02T10:15:35;11.10;;;10.00;;
65035;SDS011;51603;49.300;8.880;2024-03-02T10:18:10;10.37;;;9.10;;
65035;SDS011;51603;49.300;8.880;2024-03-02T10:20:37;12.57;;;10.83;;
65035;SDS011;51603;49.300;8.880;2024-03-02T10:23:13;12.20;;;10.90;;
65035;SDS011;51603;49.300;8.880;2024-03-02T10:25:42;10.83;;;9.70;;
65035;SDS011;51603;49.300;8.880;2024-03-02T10:28:09;10.97;;;9.87;;
65035;SDS011;51603;49.300;8.880;2024-03-02T10:30:34;11.00;;;8.90;;
65035;SDS011;51603;49.300;8.880;2024-03-02T10:33:01;10.57;;;9.30;;
65035;SDS011;51603;49.300;8.880;2024-03-02T10:35:27;11.83;;;9.37;;
65035;SDS011;51603;49.300;8.880;2024-03-02T10:37:53;11.00;;;9.30;;
65035;SDS011;51603;49.300;8.880;2024-03-02T10:40:22;10.20;;;9.10;;
65035;SDS011;51603;49.300;8.880;2024-03-02T10:42:48;9.43;;;8.53;;
65035;SDS011;51603;49.300;8.880;2024-03-02T10:45:16;9.67;;;8.37;;
65035;SDS011;51603;49.300;8.880;2024-03-02T10:47:45;8.80;;;7.73;;
65035;SDS011;51603;49.300;8.880;2024-03-02T10:50:12;9.30;;;7.70;;
65035;SDS011;51603;49.300;8.880;2024-03-02T10:52:38;11.80;;;7.97;;
65035;SDS011;51603;49.300;8.880;2024-03-02T10:55:04;11.10;;;8.73;;
65035;SDS011;51603;49.300;8.880;2024-03-02T10:57:33;9.90;;;8.40;;
65035;SDS011;51603;49.300;8.880;2024-03-02T11:00:21;9.87;;;8.87;;
65035;SDS011;51603;49.300;8.880;2024-03-02T11:02:52;9.23;;;8.33;;
65035;SDS011;51603;49.300;8.880;2024-03-02T11:05:23;9.53;;;8.53;;
65035;SDS011;51603;49.300;8.880;2024-03-02T11:07:57;9.30;;;8.40;;
65035;SDS011;51603;49.300;8.880;2024-03-02T11:10:28;7.73;;;6.90;;
65035;SDS011;51603;49.300;8.880;2024-03-02T11:13:02;10.80;;;7.87;;
65035;SDS011;51603;49.300;8.880;2024-03-02T11:15:30;9.90;;;7.33;;
65035;SDS011;51603;49.300;8.880;2024-03-02T11:17:59;8.53;;;7.63;;
65035;SDS011;51603;49.300;8.880;2024-03-02T11:20:26;11.07;;;8.33;;
65035;SDS011;51603;49.300;8.880;2024-03-02T11:22:53;8.53;;;7.47;;
65035;SDS011;51603;49.300;8.880;2024-03-02T11:25:22;10.03;;;8.07;;
65035;SDS011;51603;49.300;8.880;2024-03-02T11:32:58;6.77;;;6.10;;
65035;SDS011;51603;49.300;8.880;2024-03-02T11:35:25;6.93;;;6.23;;
65035;SDS011;51603;49.300;8.880;2024-03-02T11:37:51;10.77;;;9.30;;
65035;SDS011;51603;49.300;8.880;2024-03-02T11:40:36;9.40;;;7.23;;
65035;SDS011;51603;49.300;8.880;2024-03-02T11:43:04;8.50;;;7.60;;
65035;SDS011;51603;49.300;8.880;2024-03-02T11:45:31;9.10;;;8.20;;
65035;SDS011;51603;49.300;8.880;2024-03-02T11:47:58;8.60;;;7.23;;
65035;SDS011;51603;49.300;8.880;2024-03-02T11:50:30;8.63;;;7.73;;
65035;SDS011;51603;49.300;8.880;2024-03-02T11:53:02;7.77;;;7.00;;
65035;SDS011;51603;49.300;8.880;2024-03-02T11:55:31;7.07;;;6.47;;
65035;SDS011;51603;49.300;8.880;2024-03-02T11:57:59;5.50;;;5.00;;
65035;SDS011;51603;49.300;8.880;2024-03-02T12:00:26;8.47;;;7.10;;
65035;SDS011;51603;49.300;8.880;2024-03-02T12:05:30;8.00;;;6.57;;
65035;SDS011;51603;49.300;8.880;2024-03-02T12:07:57;10.33;;;6.67;;
65035;SDS011;51603;49.300;8.880;2024-03-02T12:10:24;7.30;;;6.60;;
65035;SDS011;51603;49.300;8.880;2024-03-02T12:15:29;6.47;;;5.60;;
65035;SDS011;51603;49.300;8.880;2024-03-02T12:17:56;7.77;;;6.97;;
65035;SDS011;51603;49.300;8.880;2024-03-02T12:20:23;6.43;;;5.80;;
65035;SDS011;51603;49.300;8.880;2024-03-02T12:22:52;6.53;;;5.87;;
65035;SDS011;51603;49.300;8.880;2024-03-02T12:25:22;5.73;;;5.20;;
65035;SDS011;51603;49.300;8.880;2024-03-02T12:27:52;5.10;;;4.13;;
65035;SDS011;51603;49.300;8.880;2024-03-02T12:30:19;7.03;;;6.33;;
65035;SDS011;51603;49.300;8.880;2024-03-02T12:32:45;8.77;;;7.93;;
65035;SDS011;51603;49.300;8.880;2024-03-02T12:35:12;5.00;;;4.57;;
65035;SDS011;51603;49.300;8.880;2024-03-02T12:37:47;5.93;;;5.33;;
65035;SDS011;51603;49.300;8.880;2024-03-02T12:40:14;7.00;;;5.23;;
65035;SDS011;51603;49.300;8.880;2024-03-02T12:42:44;5.40;;;4.77;;
65035;SDS011;51603;49.300;8.880;2024-03-02T12:45:11;4.40;;;4.00;;
65035;SDS011;51603;49.300;8.880;2024-03-02T12:47:37;4.23;;;3.83;;
65035;SDS011;51603;49.300;8.880;2024-03-02T12:50:05;5.40;;;4.90;;
65035;SDS011;51603;49.300;8.880;2024-03-02T12:52:31;6.03;;;5.10;;
65035;SDS011;51603;49.300;8.880;2024-03-02T12:54:58;6.10;;;5.03;;
65035;SDS011;51603;49.300;8.880;2024-03-02T12:57:31;4.27;;;3.77;;
65035;SDS011;51603;49.300;8.880;2024-03-02T12:59:58;4.47;;;3.93;;
65035;SDS011;51603;49.300;8.880;2024-03-02T13:02:34;6.13;;;4.30;;
65035;SDS011;51603;49.300;8.880;2024-03-02T13:05:00;4.43;;;3.90;;
65035;SDS011;51603;49.300;8.880;2024-03-02T13:07:26;4.20;;;3.37;;
65035;SDS011;51603;49.300;8.880;2024-03-02T13:09:52;4.33;;;3.93;;
65035;SDS011;51603;49.300;8.880;2024-03-02T13:12:20;4.73;;;4.10;;
65035;SDS011;51603;49.300;8.880;2024-03-02T13:14:50;3.93;;;3.53;;
65035;SDS011;51603;49.300;8.880;2024-03-02T13:17:17;3.67;;;2.80;;
65035;SDS011;51603;49.300;8.880;2024-03-02T13:19:50;5.43;;;4.50;;
65035;SDS011;51603;49.300;8.880;2024-03-02T13:22:22;5.33;;;4.77;;
65035;SDS011;51603;49.300;8.880;2024-03-02T13:24:48;5.13;;;4.17;;
65035;SDS011;51603;49.300;8.880;2024-03-02T13:27:15;3.50;;;3.20;;
65035;SDS011;51603;49.300;8.880;2024-03-02T13:29:41;5.00;;;3.97;;
65035;SDS011;51603;49.300;8.880;2024-03-02T13:32:07;3.60;;;2.57;;
65035;SDS011;51603;49.300;8.880;2024-03-02T13:34:32;2.97;;;2.63;;
65035;SDS011;51603;49.300;8.880;2024-03-02T13:36:58;3.33;;;3.03;;
65035;SDS011;51603;49.300;8.880;2024-03-02T13:39:26;2.50;;;2.30;;
65035;SDS011;51603;49.300;8.880;2024-03-02T13:41:52;2.50;;;1.90;;
65035;SDS011;51603;49.300;8.880;2024-03-02T13:44:22;2.73;;;2.40;;
65035;SDS011;51603;49.300;8.880;2024-03-02T13:46:48;5.13;;;2.17;;
65035;SDS011;51603;49.300;8.880;2024-03-02T13:49:14;3.43;;;2.17;;
65035;SDS011;51603;49.300;8.880;2024-03-02T13:51:39;2.57;;;1.83;;
65035;SDS011;51603;49.300;8.880;2024-03-02T13:54:05;2.10;;;1.53;;
65035;SDS011;51603;49.300;8.880;2024-03-02T13:56:30;3.57;;;2.40;;
65035;SDS011;51603;49.300;8.880;2024-03-02T13:58:57;2.07;;;1.60;;
65035;SDS011;51603;49.300;8.880;2024-03-02T14:01:23;2.53;;;2.33;;
65035;SDS011;51603;49.300;8.880;2024-03-02T14:03:48;2.70;;;2.00;;
65035;SDS011;51603;49.300;8.880;2024-03-02T14:06:14;2.20;;;1.80;;
65035;SDS011;51603;49.300;8.880;2024-03-02T14:08:40;2.60;;;1.40;;
65035;SDS011;51603;49.300;8.880;2024-03-02T14:11:05;2.70;;;2.00;;
65035;SDS011;51603;49.300;8.880;2024-03-02T14:13:31;1.93;;;1.63;;
65035;SDS011;51603;49.300;8.880;2024-03-02T14:15:56;2.93;;;1.90;;
65035;SDS011;51603;49.300;8.880;2024-03-02T14:18:23;3.40;;;2.37;;
65035;SDS011;51603;49.300;8.880;2024-03-02T14:20:48;2.90;;;2.20;;
65035;SDS011;51603;49.300;8.880;2024-03-02T14:23:17;2.37;;;2.17;;
65035;SDS011;51603;49.300;8.880;2024-03-02T14:25:44;2.97;;;2.30;;
65035;SDS011;51603;49.300;8.880;2024-03-02T14:28:10;3.57;;;3.27;;
65035;SDS011;51603;49.300;8.880;2024-03-02T14:30:37;2.40;;;2.03;;
65035;SDS011;51603;49.300;8.880;2024-03-02T14:33:02;3.07;;;2.77;;
65035;SDS011;51603;49.300;8.880;2024-03-02T14:35:28;3.23;;;2.93;;
65035;SDS011;51603;49.300;8.880;2024-03-02T14:37:53;3.07;;;2.60;;